createdAt,value
2019-03-05T00:01:14.149Z,6.50
2019-03-05T00:03:43.374Z,6.30
2019-03-05T00:06:12.208Z,6.65
2019-03-05T00:08:41.093Z,6.50
2019-03-05T00:11:10.092Z,6.35
2019-03-05T00:13:39.005Z,6.90
2019-03-05T00:16:07.958Z,6.35
2019-03-05T00:18:36.817Z,7.28
2019-03-05T00:21:05.818Z,7.33
2019-03-05T00:23:52.951Z,7.35
2019-03-05T00:26:31.041Z,6.90
2019-03-05T00:29:19.510Z,7.08
2019-03-05T00:31:49.095Z,7.33
2019-03-05T00:34:35.651Z,8.38
2019-03-05T00:37:25.298Z,8.43
2019-03-05T00:40:18.072Z,7.00
2019-03-05T00:43:13.631Z,7.30
2019-03-05T00:45:57.274Z,7.12
2019-03-05T00:48:45.331Z,7.37
2019-03-05T00:51:36.620Z,7.05
2019-03-05T00:54:29.416Z,6.95
2019-03-05T00:57:01.366Z,7.55
2019-03-05T01:00:01.697Z,8.30
2019-03-05T01:02:45.536Z,7.17
2019-03-05T01:05:29.024Z,7.40
2019-03-05T01:07:57.964Z,8.70
2019-03-05T01:10:26.808Z,7.80
2019-03-05T01:12:55.805Z,8.15
2019-03-05T01:15:24.752Z,8.93
2019-03-05T01:17:53.699Z,8.48
2019-03-05T01:20:22.556Z,8.05
2019-03-05T01:22:51.420Z,7.37
2019-03-05T01:25:28.441Z,7.47
2019-03-05T01:27:57.564Z,7.78
2019-03-05T01:30:42.896Z,8.05
2019-03-05T01:33:13.375Z,7.22
2019-03-05T01:35:46.677Z,7.60
2019-03-05T01:38:15.613Z,6.65
2019-03-05T01:40:44.587Z,6.85
2019-03-05T01:43:13.445Z,7.25
2019-03-05T01:45:42.225Z,7.45
2019-03-05T01:48:11.315Z,7.42
2019-03-05T01:50:40.177Z,7.03
2019-03-05T01:53:09.042Z,7.60
2019-03-05T01:55:37.916Z,6.55
2019-03-05T01:58:06.841Z,6.97
2019-03-05T02:00:36.229Z,7.30
2019-03-05T02:03:05.170Z,6.00
2019-03-05T02:05:34.201Z,7.25
2019-03-05T02:08:03.194Z,6.00
2019-03-05T02:10:32.166Z,6.92
2019-03-05T02:13:01.123Z,6.62
2019-03-05T02:15:29.964Z,6.67
2019-03-05T02:17:58.848Z,6.15
2019-03-05T02:20:27.791Z,6.33
2019-03-05T02:23:00.084Z,5.87
2019-03-05T02:25:37.642Z,5.25
2019-03-05T02:28:15.125Z,5.60
2019-03-05T02:30:56.182Z,5.75
2019-03-05T02:33:52.484Z,5.92
2019-03-05T02:36:48.503Z,4.65
2019-03-05T02:39:49.465Z,5.58
2019-03-05T02:42:55.346Z,4.33
2019-03-05T02:45:47.943Z,5.42
2019-03-05T02:48:28.831Z,5.50
2019-03-05T02:51:06.817Z,5.05
2019-03-05T02:54:03.075Z,6.42
2019-03-05T02:56:40.708Z,5.17
2019-03-05T02:59:08.540Z,5.75
2019-03-05T03:01:54.358Z,5.72
2019-03-05T03:04:33.936Z,6.08
2019-03-05T03:07:02.795Z,6.12
2019-03-05T03:09:34.716Z,5.90
2019-03-05T03:12:03.603Z,6.67
2019-03-05T03:14:32.453Z,5.87
2019-03-05T03:17:01.316Z,5.67
2019-03-05T03:19:30.210Z,6.12
2019-03-05T03:21:59.052Z,5.95
2019-03-05T03:24:27.914Z,5.90
2019-03-05T03:26:56.781Z,5.45
2019-03-05T03:29:25.667Z,5.75
2019-03-05T03:31:54.521Z,6.10
2019-03-05T03:34:23.514Z,5.17
2019-03-05T03:36:52.376Z,6.10
2019-03-05T03:39:21.569Z,6.15
2019-03-05T03:41:50.357Z,4.12
2019-03-05T03:44:19.194Z,4.85
2019-03-05T03:46:48.052Z,4.87
2019-03-05T03:49:16.865Z,4.70
2019-03-05T03:51:45.645Z,5.83
2019-03-05T03:54:14.473Z,5.78
2019-03-05T03:56:43.356Z,4.03
2019-03-05T03:59:12.269Z,7.03
2019-03-05T04:01:41.122Z,5.75
2019-03-05T04:04:10.004Z,4.92
2019-03-05T04:06:38.868Z,3.70
2019-03-05T04:09:10.609Z,3.85
2019-03-05T04:11:39.426Z,3.70
2019-03-05T04:14:08.110Z,3.47
2019-03-05T04:16:37.085Z,4.17
2019-03-05T04:19:07.593Z,3.25
2019-03-05T04:21:36.555Z,3.30
2019-03-05T04:24:05.436Z,3.45
2019-03-05T04:26:34.317Z,3.83
2019-03-05T04:29:03.164Z,3.33
2019-03-05T04:31:33.214Z,2.77
2019-03-05T04:34:02.136Z,3.25
2019-03-05T04:36:30.968Z,3.83
2019-03-05T04:38:59.811Z,3.58
2019-03-05T04:41:28.691Z,3.70
2019-03-05T04:43:57.531Z,3.45
2019-03-05T04:46:34.050Z,3.50
2019-03-05T04:49:19.564Z,3.80
2019-03-05T04:52:06.102Z,3.85
2019-03-05T04:54:35.937Z,3.83
2019-03-05T04:57:04.779Z,3.65
2019-03-05T04:59:33.696Z,3.92
2019-03-05T05:02:02.550Z,4.97
2019-03-05T05:04:31.391Z,3.55
2019-03-05T05:07:00.257Z,4.83
2019-03-05T05:09:29.156Z,3.65
2019-03-05T05:11:57.946Z,3.10
2019-03-05T05:14:26.826Z,3.40
2019-03-05T05:16:55.670Z,4.35
2019-03-05T05:19:24.444Z,4.20
2019-03-05T05:21:53.373Z,4.83
2019-03-05T05:24:22.237Z,4.10
2019-03-05T05:26:51.124Z,3.75
2019-03-05T05:29:19.996Z,4.35
2019-03-05T05:31:48.960Z,4.75
2019-03-05T05:34:17.810Z,4.30
2019-03-05T05:36:46.741Z,4.22
2019-03-05T05:39:41.316Z,4.78
2019-03-05T05:42:11.880Z,4.78
2019-03-05T05:44:40.632Z,4.45
2019-03-05T05:47:09.450Z,4.70
2019-03-05T05:49:38.314Z,5.12
2019-03-05T05:52:07.088Z,4.10
2019-03-05T05:54:35.928Z,4.80
2019-03-05T05:57:04.804Z,4.65
2019-03-05T05:59:33.600Z,4.50
2019-03-05T06:02:02.369Z,4.05
2019-03-05T06:04:31.249Z,4.78
2019-03-05T06:07:00.032Z,5.10
2019-03-05T06:09:28.889Z,5.15
2019-03-05T06:11:57.685Z,4.62
2019-03-05T06:14:26.533Z,4.83
2019-03-05T06:16:55.390Z,5.92
2019-03-05T06:19:24.255Z,4.33
2019-03-05T06:21:53.108Z,5.70
2019-03-05T06:24:21.963Z,4.72
2019-03-05T06:26:50.936Z,4.47
2019-03-05T06:29:19.731Z,5.33
2019-03-05T06:31:48.570Z,5.17
2019-03-05T06:34:17.457Z,5.62
2019-03-05T06:36:49.344Z,4.92
2019-03-05T06:39:18.176Z,5.40
2019-03-05T06:41:47.180Z,5.37
2019-03-05T06:44:16.029Z,5.40
2019-03-05T06:46:44.821Z,5.10
2019-03-05T06:49:13.721Z,5.53
2019-03-05T06:51:42.563Z,5.00
2019-03-05T06:54:11.400Z,5.25
2019-03-05T06:56:40.265Z,4.47
2019-03-05T06:59:09.137Z,4.70
2019-03-05T07:01:38.045Z,4.72
2019-03-05T07:04:06.993Z,5.12
2019-03-05T07:06:54.766Z,4.97
2019-03-05T07:09:56.432Z,4.40
2019-03-05T07:12:40.174Z,5.85
2019-03-05T07:15:34.857Z,4.80
2019-03-05T07:18:23.666Z,6.03
2019-03-05T07:20:58.477Z,4.60
2019-03-05T07:23:48.223Z,4.47
2019-03-05T07:26:17.094Z,5.72
2019-03-05T07:28:45.933Z,4.80
2019-03-05T07:31:14.713Z,4.42
2019-03-05T07:33:43.688Z,4.33
2019-03-05T07:36:12.683Z,4.75
2019-03-05T07:38:41.577Z,4.30
2019-03-05T07:41:10.392Z,4.35
2019-03-05T07:43:39.263Z,5.42
2019-03-05T07:46:08.111Z,5.60
2019-03-05T07:48:56.001Z,5.40
2019-03-05T07:51:24.760Z,5.60
2019-03-05T07:53:53.542Z,5.30
2019-03-05T07:56:22.415Z,5.95
2019-03-05T07:58:51.180Z,5.60
2019-03-05T08:01:22.548Z,5.87
2019-03-05T08:03:50.645Z,4.67
2019-03-05T08:06:19.486Z,5.37
2019-03-05T08:09:43.974Z,6.25
2019-03-05T08:12:25.193Z,5.05
2019-03-05T08:15:15.354Z,6.80
2019-03-05T08:17:46.835Z,6.70
2019-03-05T08:20:14.717Z,6.28
2019-03-05T08:22:43.846Z,6.90
2019-03-05T08:25:13.205Z,7.28
2019-03-05T08:27:41.996Z,6.67
2019-03-05T08:30:17.907Z,6.25
2019-03-05T08:32:46.830Z,6.72
2019-03-05T08:35:15.592Z,6.50
2019-03-05T08:37:44.526Z,7.45
2019-03-05T08:40:15.209Z,5.80
2019-03-05T08:42:43.990Z,6.47
2019-03-05T08:45:14.885Z,5.80
2019-03-05T08:47:43.876Z,5.53
2019-03-05T08:50:14.764Z,5.65
2019-03-05T08:52:43.729Z,6.40
2019-03-05T08:55:13.053Z,5.37
2019-03-05T08:57:41.844Z,5.35
2019-03-05T09:00:21.576Z,5.35
2019-03-05T09:02:50.439Z,4.62
2019-03-05T09:05:20.109Z,4.25
2019-03-05T09:07:49.357Z,4.60
2019-03-05T09:10:24.589Z,4.83
2019-03-05T09:12:53.449Z,4.37
2019-03-05T09:15:22.405Z,3.87
2019-03-05T09:17:51.232Z,4.80
2019-03-05T09:20:20.478Z,4.90
2019-03-05T09:22:49.437Z,4.40
2019-03-05T09:25:21.321Z,4.62
2019-03-05T09:27:50.174Z,4.50
2019-03-05T09:30:23.919Z,4.15
2019-03-05T09:32:52.785Z,4.35
2019-03-05T09:35:21.301Z,4.90
2019-03-05T09:37:50.169Z,5.15
2019-03-05T09:40:21.761Z,5.30
2019-03-05T09:42:51.139Z,5.53
2019-03-05T09:45:21.131Z,3.95
2019-03-05T09:47:50.120Z,3.90
2019-03-05T09:50:19.625Z,4.75
2019-03-05T09:52:54.961Z,3.52
2019-03-05T09:55:26.002Z,3.85
2019-03-05T09:58:07.107Z,3.85
2019-03-05T10:00:30.495Z,4.12
2019-03-05T10:02:59.592Z,4.37
2019-03-05T10:05:28.490Z,3.27
2019-03-05T10:07:57.043Z,3.77
2019-03-05T10:10:30.606Z,3.80
2019-03-05T10:13:04.400Z,3.60
2019-03-05T10:15:50.164Z,3.90
2019-03-05T10:18:19.150Z,3.55
2019-03-05T10:20:48.064Z,4.85
2019-03-05T10:23:16.997Z,3.80
2019-03-05T10:25:46.037Z,4.15
2019-03-05T10:28:14.986Z,3.98
2019-03-05T10:30:44.270Z,4.28
2019-03-05T10:33:16.044Z,4.40
2019-03-05T10:35:45.098Z,4.50
2019-03-05T10:38:14.248Z,4.47
2019-03-05T10:40:48.635Z,4.10
2019-03-05T10:43:17.952Z,3.60
2019-03-05T10:45:47.810Z,4.15
2019-03-05T10:48:22.562Z,5.28
2019-03-05T10:51:10.793Z,4.20
2019-03-05T10:53:39.940Z,4.15
2019-03-05T10:56:08.937Z,3.92
2019-03-05T10:58:37.928Z,4.25
2019-03-05T11:01:08.160Z,4.08
2019-03-05T11:03:37.144Z,4.28
2019-03-05T11:06:06.969Z,3.95
2019-03-05T11:08:35.949Z,3.80
2019-03-05T11:11:13.170Z,4.15
2019-03-05T11:13:35.591Z,4.45
2019-03-05T11:16:06.134Z,5.33
2019-03-05T11:18:35.633Z,4.05
2019-03-05T11:21:05.719Z,4.40
2019-03-05T11:23:34.663Z,4.37
2019-03-05T11:26:03.768Z,3.90
2019-03-05T11:28:32.654Z,4.35
2019-03-05T11:31:01.718Z,5.25
2019-03-05T11:33:30.659Z,4.28
2019-03-05T11:35:59.608Z,4.90
2019-03-05T11:38:28.505Z,4.85
2019-03-05T11:40:57.664Z,4.90
2019-03-05T11:43:26.616Z,5.60
2019-03-05T11:45:55.816Z,4.97
2019-03-05T11:48:24.722Z,4.42
2019-03-05T11:50:53.669Z,5.53
2019-03-05T11:53:22.651Z,5.85
2019-03-05T11:55:51.573Z,5.37
2019-03-05T11:58:20.460Z,5.55
2019-03-05T12:00:56.879Z,5.67
2019-03-05T12:03:25.891Z,4.58
2019-03-05T12:05:54.841Z,5.45
2019-03-05T12:08:23.586Z,4.50
2019-03-05T12:10:52.462Z,4.63
2019-03-05T12:13:21.300Z,4.93
2019-03-05T12:15:50.014Z,5.10
2019-03-05T12:18:18.738Z,5.03
2019-03-05T12:20:47.434Z,5.00
2019-03-05T12:23:16.092Z,5.00
2019-03-05T12:25:44.867Z,4.60
2019-03-05T12:28:14.010Z,5.60
2019-03-05T12:30:42.918Z,4.90
2019-03-05T12:33:11.718Z,5.40
2019-03-05T12:35:40.508Z,6.10
2019-03-05T12:38:09.358Z,4.90
2019-03-05T12:40:38.105Z,4.73
2019-03-05T12:43:06.750Z,4.80
2019-03-05T12:45:35.498Z,4.07
2019-03-05T12:48:04.428Z,4.40
2019-03-05T12:50:37.298Z,3.60
2019-03-05T12:53:06.131Z,3.83
2019-03-05T12:55:34.702Z,4.20
2019-03-05T12:58:03.345Z,4.43
2019-03-05T13:00:36.280Z,4.20
2019-03-05T13:03:05.192Z,4.10
2019-03-05T13:05:33.782Z,3.80
2019-03-05T13:08:02.634Z,4.00
2019-03-05T13:10:37.559Z,3.93
2019-03-05T13:13:06.202Z,3.70
2019-03-05T13:15:36.414Z,3.80
2019-03-05T13:18:05.121Z,3.70
2019-03-05T13:20:33.925Z,3.27
2019-03-05T13:23:08.722Z,3.13
2019-03-05T13:25:33.067Z,3.80
2019-03-05T13:28:03.758Z,3.57
2019-03-05T13:30:33.002Z,4.00
2019-03-05T13:33:01.545Z,3.70
2019-03-05T13:35:31.933Z,3.50
2019-03-05T13:38:12.985Z,3.00
2019-03-05T13:40:41.562Z,3.00
2019-03-05T13:43:10.132Z,3.20
2019-03-05T13:45:43.949Z,3.37
2019-03-05T13:48:20.541Z,2.63
2019-03-05T13:51:09.776Z,3.20
2019-03-05T13:54:01.407Z,2.70
2019-03-05T13:56:44.141Z,3.00
2019-03-05T13:59:34.457Z,2.90
2019-03-05T14:02:03.294Z,2.77
2019-03-05T14:04:46.697Z,2.40
2019-03-05T14:07:47.277Z,3.10
2019-03-05T14:10:16.493Z,2.40
2019-03-05T14:12:45.072Z,2.10
2019-03-05T14:15:14.192Z,2.27
2019-03-05T14:17:43.062Z,2.70
2019-03-05T14:20:14.795Z,2.70
2019-03-05T14:22:43.428Z,2.60
2019-03-05T14:25:16.226Z,2.30
2019-03-05T14:27:45.091Z,2.20
2019-03-05T14:30:21.452Z,1.90
2019-03-05T14:32:50.358Z,2.20
2019-03-05T14:35:20.067Z,2.13
2019-03-05T14:37:48.877Z,1.97
2019-03-05T14:40:24.724Z,1.87
2019-03-05T14:42:53.494Z,1.73
2019-03-05T14:45:27.473Z,1.77
2019-03-05T14:47:57.840Z,1.93
2019-03-05T14:50:26.539Z,1.60
2019-03-05T14:52:55.292Z,1.60
2019-03-05T14:55:24.140Z,1.13
2019-03-05T14:57:52.787Z,1.40
2019-03-05T15:00:24.094Z,4.53
2019-03-05T15:02:52.948Z,1.77
2019-03-05T15:05:21.674Z,1.53
2019-03-05T15:07:50.288Z,1.70
2019-03-05T15:10:19.025Z,1.97
2019-03-05T15:12:47.659Z,1.90
2019-03-05T15:15:19.352Z,1.93
2019-03-05T15:17:48.076Z,2.20
2019-03-05T15:20:16.664Z,2.23
2019-03-05T15:22:45.347Z,2.10
2019-03-05T15:25:16.160Z,2.63
2019-03-05T15:27:44.760Z,2.43
2019-03-05T15:30:16.234Z,2.63
2019-03-05T15:32:44.883Z,2.30
2019-03-05T15:35:13.682Z,2.63
2019-03-05T15:37:42.274Z,2.70
2019-03-05T15:40:13.410Z,2.33
2019-03-05T15:42:42.048Z,3.20
2019-03-05T15:45:13.822Z,2.80
2019-03-05T15:47:42.787Z,2.90
2019-03-05T15:50:14.223Z,2.50
2019-03-05T15:52:42.809Z,2.33
2019-03-05T15:55:15.909Z,2.70
2019-03-05T15:57:44.575Z,2.80
2019-03-05T16:03:04.019Z,2.23
2019-03-05T16:05:32.835Z,2.17
2019-03-05T16:08:01.624Z,3.13
2019-03-05T16:10:30.311Z,2.37
2019-03-05T16:12:58.598Z,2.40
2019-03-05T16:15:27.526Z,2.40
2019-03-05T16:17:56.459Z,2.72
2019-03-05T16:20:26.123Z,2.72
2019-03-05T16:22:56.789Z,3.10
2019-03-05T16:25:25.818Z,2.50
2019-03-05T16:27:54.474Z,2.80
2019-03-05T16:30:44.937Z,4.03
2019-03-05T16:33:23.692Z,3.00
2019-03-05T16:36:13.024Z,2.90
2019-03-05T16:38:43.612Z,2.72
2019-03-05T16:41:26.263Z,3.40
2019-03-05T16:43:59.680Z,3.50
2019-03-05T16:46:46.320Z,2.85
2019-03-05T16:49:16.808Z,3.08
2019-03-05T16:51:55.051Z,4.00
2019-03-05T16:54:28.546Z,3.42
2019-03-05T16:57:05.332Z,3.62
2019-03-05T16:59:48.363Z,3.10
2019-03-05T17:02:31.058Z,3.42
2019-03-05T17:05:04.173Z,4.30
2019-03-05T17:10:40.871Z,4.10
2019-03-05T17:13:09.784Z,4.20
2019-03-05T17:15:38.667Z,3.30
2019-03-05T17:18:07.704Z,5.20
2019-03-05T17:20:36.646Z,3.90
2019-03-05T17:23:06.044Z,4.50
2019-03-05T17:25:34.894Z,5.28
2019-03-05T17:28:03.932Z,4.03
2019-03-05T17:30:33.165Z,4.72
2019-03-05T17:33:02.085Z,6.17
2019-03-05T17:35:31.325Z,5.65
2019-03-05T17:38:00.091Z,5.35
2019-03-05T17:40:29.077Z,5.15
2019-03-05T17:42:57.976Z,5.50
2019-03-05T17:45:26.953Z,6.20
2019-03-05T17:47:56.064Z,5.60
2019-03-05T17:50:24.920Z,5.70
2019-03-05T17:52:53.786Z,5.80
2019-03-05T17:55:27.372Z,6.42
2019-03-05T17:57:56.275Z,7.30
2019-03-05T18:00:27.575Z,5.37
2019-03-05T18:02:56.619Z,5.60
2019-03-05T18:05:25.608Z,5.50
2019-03-05T18:07:54.539Z,5.70
2019-03-05T18:10:23.770Z,7.40
2019-03-05T18:12:52.692Z,6.08
2019-03-05T18:15:21.549Z,6.50
2019-03-05T18:17:50.624Z,6.45
2019-03-05T18:20:21.949Z,6.45
2019-03-05T18:22:52.144Z,5.47
2019-03-05T18:25:21.546Z,7.90
2019-03-05T18:27:50.567Z,5.15
2019-03-05T18:30:26.657Z,6.12
2019-03-05T18:32:56.076Z,5.87
2019-03-05T18:35:29.661Z,6.33
2019-03-05T18:37:58.754Z,7.83
2019-03-05T18:40:28.033Z,6.30
2019-03-05T18:42:57.027Z,6.12
2019-03-05T18:45:34.103Z,6.78
2019-03-05T18:48:03.094Z,6.40
2019-03-05T18:50:31.968Z,6.37
2019-03-05T18:53:01.987Z,7.08
2019-03-05T18:55:31.176Z,7.50
2019-03-05T18:58:00.089Z,6.50
2019-03-05T19:00:32.935Z,7.17
2019-03-05T19:03:07.631Z,6.85
2019-03-05T19:05:36.838Z,6.55
2019-03-05T19:08:05.874Z,7.12
2019-03-05T19:10:34.790Z,7.03
2019-03-05T19:13:03.979Z,8.23
2019-03-05T19:15:33.020Z,6.58
2019-03-05T19:18:02.190Z,7.30
2019-03-05T19:20:31.877Z,5.90
2019-03-05T19:23:00.893Z,6.92
2019-03-05T19:25:37.815Z,6.87
2019-03-05T19:28:06.933Z,7.20
2019-03-05T19:30:38.898Z,8.03
2019-03-05T19:33:07.895Z,8.00
2019-03-05T19:35:36.927Z,7.40
2019-03-05T19:38:05.909Z,8.40
2019-03-05T19:40:45.662Z,8.18
2019-03-05T19:43:14.616Z,8.95
2019-03-05T19:45:43.473Z,7.22
2019-03-05T19:48:12.497Z,7.40
2019-03-05T19:50:41.750Z,8.03
2019-03-05T19:53:10.803Z,8.55
2019-03-05T19:55:39.752Z,8.58
2019-03-05T19:58:10.480Z,7.03
2019-03-05T20:00:48.253Z,10.08
2019-03-05T20:03:17.109Z,7.17
2019-03-05T20:05:46.043Z,7.30
2019-03-05T20:08:15.079Z,7.80
2019-03-05T20:10:44.862Z,8.18
2019-03-05T20:13:13.936Z,7.67
2019-03-05T20:15:42.959Z,8.25
2019-03-05T20:18:11.987Z,7.53
2019-03-05T20:20:42.452Z,8.70
2019-03-05T20:23:11.404Z,8.63
2019-03-05T20:25:40.609Z,8.08
2019-03-05T20:28:09.522Z,7.67
2019-03-05T20:30:38.542Z,6.87
2019-03-05T20:33:07.556Z,7.53
2019-03-05T20:35:36.431Z,6.90
2019-03-05T20:38:05.701Z,7.67
2019-03-05T20:40:34.611Z,7.55
2019-03-05T20:43:04.317Z,7.70
2019-03-05T20:45:36.260Z,7.37
2019-03-05T20:48:05.488Z,8.78
2019-03-05T20:50:34.778Z,8.05
2019-03-05T20:53:03.718Z,8.03
2019-03-05T20:55:32.594Z,7.75
2019-03-05T20:58:01.457Z,8.48
2019-03-05T21:00:39.665Z,8.28
2019-03-05T21:03:12.458Z,7.55
2019-03-05T21:05:45.176Z,8.58
2019-03-05T21:08:14.185Z,8.45
2019-03-05T21:10:43.119Z,8.45
2019-03-05T21:13:12.264Z,8.70
2019-03-05T21:15:41.181Z,9.10
2019-03-05T21:18:14.884Z,8.20
2019-03-05T21:20:43.789Z,8.90
2019-03-05T21:23:12.791Z,7.70
2019-03-05T21:25:41.772Z,8.93
2019-03-05T21:28:10.735Z,8.80
2019-03-05T21:30:39.908Z,7.22
2019-03-05T21:33:08.759Z,6.20
2019-03-05T21:35:37.912Z,5.47
2019-03-05T21:38:06.936Z,5.50
2019-03-05T21:40:35.792Z,5.45
2019-03-05T21:43:04.681Z,6.42
2019-03-05T21:45:41.894Z,6.95
2019-03-05T21:48:10.764Z,7.47
2019-03-05T21:50:40.707Z,6.03
2019-03-05T21:53:09.558Z,7.70
2019-03-05T21:55:38.462Z,6.33
2019-03-05T21:58:07.450Z,5.75
2019-03-05T22:00:38.151Z,7.37
2019-03-05T22:03:07.486Z,6.35
2019-03-05T22:05:36.341Z,6.85
2019-03-05T22:08:05.359Z,5.70
2019-03-05T22:10:34.565Z,5.42
2019-03-05T22:13:03.559Z,5.12
2019-03-05T22:15:33.841Z,5.22
2019-03-05T22:18:02.788Z,5.22
2019-03-05T22:20:31.688Z,5.20
2019-03-05T22:23:00.820Z,5.10
2019-03-05T22:25:29.834Z,5.05
2019-03-05T22:27:58.856Z,6.22
2019-03-05T22:30:38.894Z,5.10
2019-03-05T22:33:08.042Z,5.53
2019-03-05T22:35:36.885Z,5.30
2019-03-05T22:38:05.926Z,6.60
2019-03-05T22:40:34.943Z,5.28
2019-03-05T22:43:03.918Z,5.35
2019-03-05T22:45:36.100Z,5.37
2019-03-05T22:48:06.560Z,5.55
2019-03-05T22:50:35.407Z,5.70
2019-03-05T22:53:04.358Z,6.20
2019-03-05T22:55:33.206Z,5.87
2019-03-05T22:58:02.071Z,6.17
2019-03-05T23:00:54.899Z,6.47
2019-03-05T23:03:29.061Z,5.65
2019-03-05T23:05:58.398Z,5.97
2019-03-05T23:08:27.338Z,6.78
2019-03-05T23:10:56.253Z,6.40
2019-03-05T23:13:25.452Z,8.00
2019-03-05T23:15:54.363Z,6.90
2019-03-05T23:18:23.443Z,6.70
2019-03-05T23:20:52.458Z,7.12
2019-03-05T23:23:21.461Z,5.97
2019-03-05T23:25:50.433Z,6.67
2019-03-05T23:28:19.552Z,6.58
2019-03-05T23:30:48.570Z,6.05
2019-03-05T23:33:17.646Z,6.25
2019-03-05T23:35:46.564Z,7.30
2019-03-05T23:38:15.452Z,5.33
2019-03-05T23:40:44.295Z,8.35
2019-03-05T23:43:13.197Z,4.87
2019-03-05T23:45:42.053Z,4.67
2019-03-05T23:48:10.833Z,5.53
2019-03-05T23:50:39.737Z,5.00
2019-03-05T23:53:08.617Z,4.37
2019-03-05T23:55:37.537Z,4.33
2019-03-05T23:58:06.402Z,3.95
